Un Pendik — TCOD2 — position and weather

sailwx.info

Track history (hours):
 
Tides and Currents Weather Stations Pressure Air Temp Water Temp Dewpoint Dewpoint Depression Visibility Wind Speed Wind Dir Waves Ship Positions

Un Pendik

Last reported at 2017-Apr-23 21:30 UTC. Time now 2017-Apr-23 21:49 UTC.
Position N 38°06' E 015°36'.

Length 193 m; draft 6.1 m.

Type: Ship (hazmat cat A). MMSI: 271000792.

Date/timePositionNaut miles runAvg speedWind from/ knotsBaromVisibWave heightAir tempDewpointWater temp
2017-Apr-23 21:30N 38°06' E 015°36'918.2
2017-Apr-23 21:00N 37°57' E 015°38'1019.0
2017-Apr-23 20:28N 37°52' E 015°49'39316.8
2017-Apr-22 21:01N 37°30' E 024°05'219.4
2017-Apr-22 20:54N 37°32' E 024°07'819.4
2017-Apr-22 20:30N 37°38' E 024°12'1019.4
2017-Apr-22 20:00N 37°46' E 024°20'1019.6
2017-Apr-22 19:30N 37°53' E 024°29'26417.6
2017-Apr-22 04:27N 40°52' E 028°40'919.1
2017-Apr-22 03:59N 40°50' E 028°51'919.1
2017-Apr-22 03:30N 40°49' E 029°03'918.4
2017-Apr-22 03:00N 40°51' E 029°14'1 2.7
2017-Apr-22 02:29N 40°51' E 029°16'0 0.0
2017-Apr-22 01:59N 40°51' E 029°16'0 0.0
2017-Apr-22 01:29N 40°51' E 029°16'0 0.0
2017-Apr-22 00:59N 40°51' E 029°16'0 0.0
2017-Apr-22 00:29N 40°51' E 029°16'0 0.0
2017-Apr-21 23:58N 40°51' E 029°16'0 0.0
2017-Apr-21 23:28N 40°51' E 029°16'0 0.0
2017-Apr-21 22:58N 40°51' E 029°16'0 0.0
2017-Apr-21 22:28N 40°51' E 029°16'0 0.0
2017-Apr-21 21:58N 40°51' E 029°16'0 0.0
2017-Apr-21 21:27N 40°51' E 029°16'0 0.0
2017-Apr-21 20:57N 40°51' E 029°16'0 0.0
2017-Apr-21 20:27N 40°51' E 029°16'0 0.0
2017-Apr-21 19:57N 40°51' E 029°16'0 0.0
2017-Apr-21 19:26N 40°51' E 029°16'0 0.0
2017-Apr-21 18:56N 40°51' E 029°16'0 0.0
2017-Apr-21 18:26N 40°51' E 029°16'0 0.0
2017-Apr-21 17:50N 40°51' E 029°16'0 0.0
2017-Apr-21 17:30N 40°51' E 029°16'1 1.5
2017-Apr-21 17:00N 40°51' E 029°15'713.9
2017-Apr-21 16:30N 40°48' E 029°07'815.1
2017-Apr-21 16:00N 40°49' E 028°57'26214.2
2017-Apr-20 21:33N 37°58' E 024°40'120.0
2017-Apr-20 21:29N 37°57' E 024°39'1020.3
2017-Apr-20 21:00N 37°48' E 024°34'1020.0
2017-Apr-20 20:29N 37°39' E 024°28'1420.0
2017-Apr-20 19:47N 37°27' E 024°19'37918.2
2017-Apr-19 22:55N 37°43' E 016°21'1120.3
2017-Apr-19 22:24N 37°46' E 016°08'820.3
2017-Apr-19 22:01N 37°48' E 015°58'1020.2
2017-Apr-19 21:31N 37°50' E 015°46'1020.6
2017-Apr-19 21:01N 37°57' E 015°36'1121.3
2017-Apr-19 20:31N 38°08' E 015°35'918.3
2017-Apr-19 20:01N 38°16' E 015°40'3 5.9
2017-Apr-19 19:30N 38°19' E 015°39'816.1
2017-Apr-19 19:00N 38°24' E 015°32'1020.4
2017-Apr-19 18:30N 38°31' E 015°22'1020.6
2017-Apr-19 18:00N 38°39' E 015°13'1020.3
2017-Apr-19 17:30N 38°44' E 015°01'1020.4
2017-Apr-19 17:00N 38°48' E 014°49'47719.3
2017-Apr-18 16:13N 43°05' E 005°57'210.2
2017-Apr-18 16:01N 43°06' E 005°55'1 1.5
2017-Apr-18 15:27N 43°06' E 005°54'0 0.0
2017-Apr-18 15:00N 43°06' E 005°54'0 0.0
2017-Apr-18 14:30N 43°06' E 005°54'0 0.0
2017-Apr-18 13:30N 43°06' E 005°54'0 0.0
2017-Apr-18 12:59N 43°06' E 005°54'0 0.0
2017-Apr-18 12:29N 43°06' E 005°54'0 0.0
2017-Apr-18 11:59N 43°06' E 005°54'0 0.0
2017-Apr-18 11:29N 43°06' E 005°54'0 0.0
2017-Apr-18 10:59N 43°06' E 005°54'0 0.0
2017-Apr-18 10:28N 43°06' E 005°54'0 0.0
2017-Apr-18 09:58N 43°06' E 005°54'0 0.0
2017-Apr-18 09:28N 43°06' E 005°54'0 0.0
2017-Apr-18 08:58N 43°06' E 005°54'0 0.0
2017-Apr-18 08:30N 43°06' E 005°54'0 0.0
2017-Apr-18 08:00N 43°06' E 005°54'0 0.0
2017-Apr-18 07:30N 43°06' E 005°54'0 0.0
2017-Apr-18 07:00N 43°06' E 005°54'0 0.6
2017-Apr-18 06:30N 43°06' E 005°54'3 5.2
2017-Apr-18 06:00N 43°05' E 005°57'47418.8
2017-Apr-17 04:47N 38°52' E 014°48'518.5
2017-Apr-17 04:29N 38°49' E 014°54'918.3
2017-Apr-17 04:00N 38°45' E 015°04'918.5
2017-Apr-17 03:30N 38°39' E 015°13'918.7
2017-Apr-17 03:00N 38°33' E 015°22'919.1
2017-Apr-17 02:30N 38°27' E 015°31'1019.2
2017-Apr-17 02:00N 38°21' E 015°41'612.1
2017-Apr-17 01:30N 38°15' E 015°39'917.4
2017-Apr-17 01:00N 38°06' E 015°36'1018.1
2017-Apr-17 00:29N 37°57' E 015°38'918.8
2017-Apr-16 23:59N 37°52' E 015°48'39416.8
2017-Apr-16 00:34N 37°31' E 024°05'519.3
2017-Apr-16 00:19N 37°35' E 024°08'1219.2
2017-Apr-15 23:43N 37°45' E 024°16'719.6
2017-Apr-15 23:23N 37°49' E 024°23'12819.2
2017-Apr-15 16:43N 39°40' E 025°43'  
Track history (hours):
 
Tides and Currents Weather Stations Pressure Air Temp Water Temp Dewpoint Dewpoint Depression Visibility Wind Speed Wind Dir Waves Ship Positions

Un Pendik

Last reported at 2017-Apr-23 21:30 UTC. Time now 2017-Apr-23 21:49 UTC.
Position N 38°06' E 015°36'.

Length 193 m; draft 6.1 m.

Type: Ship (hazmat cat A). MMSI: 271000792.

Date/timePositionNaut miles runAvg speedWind from/ knotsBaromVisibWave heightAir tempDewpointWater temp
2017-Apr-23 21:30N 38°06' E 015°36'918.2
2017-Apr-23 21:00N 37°57' E 015°38'1019.0
2017-Apr-23 20:28N 37°52' E 015°49'39316.8
2017-Apr-22 21:01N 37°30' E 024°05'219.4
2017-Apr-22 20:54N 37°32' E 024°07'819.4
2017-Apr-22 20:30N 37°38' E 024°12'1019.4
2017-Apr-22 20:00N 37°46' E 024°20'1019.6
2017-Apr-22 19:30N 37°53' E 024°29'26417.6
2017-Apr-22 04:27N 40°52' E 028°40'919.1
2017-Apr-22 03:59N 40°50' E 028°51'919.1
2017-Apr-22 03:30N 40°49' E 029°03'918.4
2017-Apr-22 03:00N 40°51' E 029°14'1 2.7
2017-Apr-22 02:29N 40°51' E 029°16'0 0.0
2017-Apr-22 01:59N 40°51' E 029°16'0 0.0
2017-Apr-22 01:29N 40°51' E 029°16'0 0.0
2017-Apr-22 00:59N 40°51' E 029°16'0 0.0
2017-Apr-22 00:29N 40°51' E 029°16'0 0.0
2017-Apr-21 23:58N 40°51' E 029°16'0 0.0
2017-Apr-21 23:28N 40°51' E 029°16'0 0.0
2017-Apr-21 22:58N 40°51' E 029°16'0 0.0
2017-Apr-21 22:28N 40°51' E 029°16'0 0.0
2017-Apr-21 21:58N 40°51' E 029°16'0 0.0
2017-Apr-21 21:27N 40°51' E 029°16'0 0.0
2017-Apr-21 20:57N 40°51' E 029°16'0 0.0
2017-Apr-21 20:27N 40°51' E 029°16'0 0.0
2017-Apr-21 19:57N 40°51' E 029°16'0 0.0
2017-Apr-21 19:26N 40°51' E 029°16'0 0.0
2017-Apr-21 18:56N 40°51' E 029°16'0 0.0
2017-Apr-21 18:26N 40°51' E 029°16'0 0.0
2017-Apr-21 17:50N 40°51' E 029°16'0 0.0
2017-Apr-21 17:30N 40°51' E 029°16'1 1.5
2017-Apr-21 17:00N 40°51' E 029°15'713.9
2017-Apr-21 16:30N 40°48' E 029°07'815.1
2017-Apr-21 16:00N 40°49' E 028°57'26214.2
2017-Apr-20 21:33N 37°58' E 024°40'120.0
2017-Apr-20 21:29N 37°57' E 024°39'1020.3
2017-Apr-20 21:00N 37°48' E 024°34'1020.0
2017-Apr-20 20:29N 37°39' E 024°28'1420.0
2017-Apr-20 19:47N 37°27' E 024°19'37918.2
2017-Apr-19 22:55N 37°43' E 016°21'1120.3
2017-Apr-19 22:24N 37°46' E 016°08'820.3
2017-Apr-19 22:01N 37°48' E 015°58'1020.2
2017-Apr-19 21:31N 37°50' E 015°46'1020.6
2017-Apr-19 21:01N 37°57' E 015°36'1121.3
2017-Apr-19 20:31N 38°08' E 015°35'918.3
2017-Apr-19 20:01N 38°16' E 015°40'3 5.9
2017-Apr-19 19:30N 38°19' E 015°39'816.1
2017-Apr-19 19:00N 38°24' E 015°32'1020.4
2017-Apr-19 18:30N 38°31' E 015°22'1020.6
2017-Apr-19 18:00N 38°39' E 015°13'1020.3
2017-Apr-19 17:30N 38°44' E 015°01'1020.4
2017-Apr-19 17:00N 38°48' E 014°49'47719.3
2017-Apr-18 16:13N 43°05' E 005°57'210.2
2017-Apr-18 16:01N 43°06' E 005°55'1 1.5
2017-Apr-18 15:27N 43°06' E 005°54'0 0.0
2017-Apr-18 15:00N 43°06' E 005°54'0 0.0
2017-Apr-18 14:30N 43°06' E 005°54'0 0.0
2017-Apr-18 13:30N 43°06' E 005°54'0 0.0
2017-Apr-18 12:59N 43°06' E 005°54'0 0.0
2017-Apr-18 12:29N 43°06' E 005°54'0 0.0
2017-Apr-18 11:59N 43°06' E 005°54'0 0.0
2017-Apr-18 11:29N 43°06' E 005°54'0 0.0
2017-Apr-18 10:59N 43°06' E 005°54'0 0.0
2017-Apr-18 10:28N 43°06' E 005°54'0 0.0
2017-Apr-18 09:58N 43°06' E 005°54'0 0.0
2017-Apr-18 09:28N 43°06' E 005°54'0 0.0
2017-Apr-18 08:58N 43°06' E 005°54'0 0.0
2017-Apr-18 08:30N 43°06' E 005°54'0 0.0
2017-Apr-18 08:00N 43°06' E 005°54'0 0.0
2017-Apr-18 07:30N 43°06' E 005°54'0 0.0
2017-Apr-18 07:00N 43°06' E 005°54'0 0.6
2017-Apr-18 06:30N 43°06' E 005°54'3 5.2
2017-Apr-18 06:00N 43°05' E 005°57'47418.8
2017-Apr-17 04:47N 38°52' E 014°48'518.5
2017-Apr-17 04:29N 38°49' E 014°54'918.3
2017-Apr-17 04:00N 38°45' E 015°04'918.5
2017-Apr-17 03:30N 38°39' E 015°13'918.7
2017-Apr-17 03:00N 38°33' E 015°22'919.1
2017-Apr-17 02:30N 38°27' E 015°31'1019.2
2017-Apr-17 02:00N 38°21' E 015°41'612.1
2017-Apr-17 01:30N 38°15' E 015°39'917.4
2017-Apr-17 01:00N 38°06' E 015°36'1018.1
2017-Apr-17 00:29N 37°57' E 015°38'918.8
2017-Apr-16 23:59N 37°52' E 015°48'39416.8
2017-Apr-16 00:34N 37°31' E 024°05'519.3
2017-Apr-16 00:19N 37°35' E 024°08'1219.2
2017-Apr-15 23:43N 37°45' E 024°16'719.6
2017-Apr-15 23:23N 37°49' E 024°23'12819.2
2017-Apr-15 16:43N 39°40' E 025°43'  

Dump ship's entire track history